Terminal Aerodrome Forecast
Issued by NWS Grand Forks, ND

Home | Current Version | Previous Version | Text Only | Print | Product List | Glossary On
Versions: 1 2 3 4 5 6 7 8 9 10 11 12
000
FTUS43 KFGF 181100
TAFGFK
TAF
KGFK 181120Z 1812/1912 13012KT P6SM BKN080
     FM181600 13017KT P6SM BKN080
     FM181800 13022G32KT P6SM BKN250
     FM190000 13020KT P6SM BKN080=

USA.gov is the U.S. government's official web portal to all federal, state and local government web resources and services.